Terminal Aerodrome Forecast
Issued by NWS Sioux Falls, SD

Home | Current Version | Previous Version | Graphics & Text | Print | Product List | Glossary On
Versions: 1 2 3 4 5 6 7 8 9 10 11 12 13 14 15 16
000
FTUS43 KFSD 221143 AAA
TAFSUX
TAF AMD
KSUX 221143Z 2212/2312 10005KT 6SM BR FEW015 SCT200
     FM221600 11008KT P6SM SCT200
     FM222000 12009KT P6SM FEW250
     FM230900 15007KT P6SM BKN200=

USA.gov is the U.S. government's official web portal to all federal, state and local government web resources and services.